Terminal Aerodrome Forecast
Issued by NWS Quad Cities IA IL

Home | Current Version | Previous Version | Text Only | Print | Product List | Glossary On
Versions: 1 2 3 4 5 6 7 8 9 10 11 12 13 14
000
FTUS43 KDVN 072300
TAFMLI
TAF
KMLI 072320Z 0800/0824 28008KT P6SM FEW040 SCT250
     FM080400 29006KT P6SM VCTS SCT040CB BKN150
      TEMPO 0804/0807 5SM -TSRA BR BKN035CB OVC070
     FM080800 30010KT P6SM SCT030 BKN120
     FM081400 31014G22KT P6SM FEW040=

USA.gov is the U.S. government's official web portal to all federal, state and local government web resources and services.